Relevés horaires Schaffen (Belgique)


Relevés horaires à Schaffen - Lundi 27 Avr. 2026
Heure UTC1 Température [°C] Vent [km/h] Hum. [%] Pres.4 [hPa] Visi. [Km] Nébu. [octa] Préc.5 [mm] Cond.
2m. Res. Ros. Dir.2 Vit. Moy. Raf.3
23:00 11.3 10.7 0.3 NNE 7.4 -- 11.1 47 1020.6(0.1/3h) >70 -- -- --
22:00 11.1 10.4 0.8 NNE 7.4 -- 9.3 49 1020.7(0.2/3h) >70 -- -- --
21:00 11.8 11.6 1.4 N 5.6 -- 9.3 49 1020.5(0.2/3h) >70 -- -- --
20:00 12.5 12.5 1.1 NNE 3.7 -- 7.4 46 1020.5(0.0/3h) >70 -- -- --
19:00 14.6 14.6 0.3 NE 3.7 -- 9.3 38 1020.3(-0.2/3h) >70 -- -- --
18:00 16.9 16.9 0.2 NE 5.6 -- 13.0 32 1020.2(-0.8/3h) >70 -- -- --
17:00 18.0 18.0 0.1 NE 7.4 -- 11.1 30 1020.2(-1.3/3h) >70 -- -- --
16:00 19.4 19.4 0.5 NE 5.6 -- 13.0 28 1020.5(-1.8/3h) >70 -- -- --
15:00 19.6 19.6 -0.1 NE 5.6 -- 13.0 27 1021(-1.6/3h) >70 -- -- --
14:00 19.0 19.0 -0.2 N 5.6 -- 13.0 27 1021.7(-1.4/3h) >70 -- -- --
13:00 18.1 18.1 -0.5 NE 3.7 -- 9.3 28 1022.2(-1.4/3h) >70 -- -- --
12:00 17.2 17.2 0.9 NNE 3.7 -- 13.0 33 1022.7(-1.2/3h) >70 -- -- --
11:00 16.0 16.0 0.4 E 3.7 -- 11.1 35 1023.2(-0.9/3h) >70 -- -- --
10:00 15.4 15.4 0.7 NE 7.4 -- 13.0 37 1023.8(-0.5/3h) >70 -- -- --
09:00 13.9 13.9 2.3 ENE 5.6 -- 9.3 45 1024(-0.3/3h) >70 -- -- --
08:00 10.3 10.3 3.9 NNO 1.9 -- 3.7 64 1024.2(0.1/3h) 14 -- -- --
07:00 7.0 7.0 3.3 NNO 1.9 -- 3.7 77 1024.5(0.6/3h) 40 -- -- --
06:00 5.3 5.3 1.9 NNO 1.9 -- 5.6 79 1024.5(0.6/3h) 30 -- -- --
05:00 5.0 5.0 0.6 NNO 1.9 -- 3.7 73 1024.4(0.3/3h) 16 -- -- --
04:00 5.9 5.9 0.5 NNO 1.9 -- 3.7 68 1024(-0.1/3h) >70 -- -- --
03:00 6.2 6.2 0.2 NE 3.7 -- 5.6 65 1023.8(-0.5/3h) >70 -- -- --
02:00 7.1 7.1 0.1 N 3.7 -- 5.6 61 1024(-0.5/3h) 17 -- -- --
01:00 8.1 8.1 -- N 3.7 -- 3.7 -- 1024.2(0.0/3h) >70 -- -- --
00:00 9.7 9.7 -0.3 NNO 1.9 -- 5.6 50 1024.4(0.2/3h) >70 -- -- --

1 Coordinated Universal Time. Actuellement il est 09:00 locale et 07:00 UTC.

2 Le vent souffle depuis la direction indiquée vers la direction oposée.

3 Les rafales max. sont disponible 40 min après l'heure du relevé.

4 Pour les stations d'altitude (plus de 600m) le géopotentiel du niveau le plus proche de la pression obligatoire est indiqué.

5 Les stations disposant d'un diffuseur peuvent indiquer "trace". Cela signifie que des précipitations ont touchés le sol mais que la quantité est inférieure à 0.1 mm.

Récapitulatif de la journée
Température [°C] Vent [km/h] Ensoleillement4 [h] Precipitations totale5 [mm] Pression [Hpa]
Min1 Max.2 Moy.3 Max. Min Max.
4.4 20.2 0 13.0 0 h 0 min 0 1020.2 1024.5

1 Température minimale relevée entre 18:00 UTC la veille et 18:00 UTC le jour donné.

2 Température maximale relevée entre 06:00 UTC le jour donné et 06:00 UTC le lendemain.

3 Vent moyen de la journée basé sur les relevés horaires.

4 Ensoleillement en heures relevé entre 06:00 UTC la veille et 06:00 UTC le jour donné.

5 Précipitations totales tombées entre 06:00 UTC la jour donné et 06:00 UTC le lendemain.

Graphiques horaires